Time;durP1;ratioP1;P1;durP2;ratioP2;P2;SDS_P1;SDS_P2;PMS_P1;PMS_P2;Temp;Humidity;BMP_temperature;BMP_pressure;BME280_temperature;BME280_humidity;BME280_pressure;Samples;Min_cycle;Max_cycle;Signal;HPM_P1;HPM_P2
2023/10/13 00:02:04;;;;;;;21.55;15.93;;;;;;;16.54;100.00;101080.50;5101535;28;20043;-65
2023/10/13 00:04:35;;;;;;;21.85;14.00;;;;;;;16.55;100.00;101082.19;5104074;28;20055;-66
2023/10/13 00:07:02;;;;;;;19.77;14.25;;;;;;;16.55;100.00;101076.81;5111533;28;20100;-65
2023/10/13 00:09:36;;;;;;;18.77;13.57;;;;;;;16.55;100.00;101071.44;5092490;28;20031;-66
2023/10/13 00:12:03;;;;;;;17.90;13.63;;;;;;;16.58;100.00;101071.19;5108459;28;20122;-65
2023/10/13 00:14:33;;;;;;;23.17;14.05;;;;;;;16.56;100.00;101074.03;5110865;28;20019;-66
2023/10/13 00:17:03;;;;;;;20.38;14.65;;;;;;;16.48;100.00;101065.75;5092973;28;20439;-66
2023/10/13 00:22:22;;;;;;;21.80;14.23;;;;;;;16.51;100.00;101060.13;5107932;28;20046;-65
2023/10/13 00:24:51;;;;;;;19.27;13.88;;;;;;;16.49;100.00;101056.72;5110426;28;20028;-66
2023/10/13 00:27:30;;;;;;;19.80;14.40;;;;;;;16.47;100.00;101053.31;5111005;28;20135;-66
2023/10/13 00:32:54;;;;;;;22.75;12.98;;;;;;;16.43;100.00;101048.34;5109768;28;20088;-65
2023/10/13 00:35:35;;;;;;;20.50;14.73;;;;;;;16.45;100.00;101046.38;5079100;28;20404;-66
2023/10/13 00:38:12;;;;;;;21.50;13.63;;;;;;;16.32;100.00;101017.91;5100149;28;20390;-65
2023/10/13 00:45:40;;;;;;;17.27;12.77;;;;;;;16.42;100.00;101034.06;5098883;28;20040;-66
2023/10/13 00:48:10;;;;;;;18.75;13.00;;;;;;;16.45;100.00;101039.16;5110252;28;20027;-66
2023/10/13 00:50:36;;;;;;;17.60;12.45;;;;;;;16.38;100.00;101034.44;5084118;28;20386;-65
2023/10/13 00:53:02;;;;;;;15.88;13.48;;;;;;;16.42;100.00;101043.94;5091342;28;20104;-66
2023/10/13 00:55:33;;;;;;;16.55;12.57;;;;;;;16.40;100.00;101030.66;5088574;28;20464;-66
2023/10/13 00:58:03;;;;;;;19.98;13.20;;;;;;;16.42;100.00;101030.53;5104289;28;20126;-65
2023/10/13 01:00:32;;;;;;;16.48;12.80;;;;;;;16.40;100.00;101025.28;5106192;28;20015;-65
2023/10/13 01:03:05;;;;;;;;;;;;;;;16.46;100.00;101019.38;5095987;28;20043;-65
2023/10/13 01:05:32;;;;;;;21.40;12.13;;;;;;;16.34;100.00;101015.06;5095382;28;19912;-65
2023/10/13 01:08:03;;;;;;;15.25;11.85;;;;;;;16.39;100.00;101022.75;5114900;28;20020;-65
2023/10/13 01:10:32;;;;;;;17.40;11.52;;;;;;;16.39;100.00;101009.31;5091499;28;20044;-65
2023/10/13 01:12:59;;;;;;;15.93;11.52;;;;;;;16.39;100.00;101014.69;5107225;28;20078;-65
2023/10/13 01:15:29;;;;;;;17.77;11.23;;;;;;;16.38;100.00;101007.59;5114656;28;20027;-65
2023/10/13 01:18:11;;;;;;;16.88;11.20;;;;;;;16.38;100.00;100999.53;5080137;28;20020;-65
2023/10/13 01:20:45;;;;;;;17.20;11.23;;;;;;;16.33;100.00;100987.38;5113819;28;20111;-65
2023/10/13 01:23:18;;;;;;;16.67;11.05;;;;;;;16.32;100.00;100987.50;5114041;28;20019;-65
2023/10/13 01:25:47;;;;;;;14.65;10.48;;;;;;;16.34;100.00;100986.38;5113726;28;20035;-65
2023/10/13 01:28:16;;;;;;;15.80;10.43;;;;;;;16.34;100.00;100982.84;5114364;28;20028;-65
2023/10/13 01:30:49;;;;;;;17.23;10.20;;;;;;;16.31;100.00;100983.13;5106724;28;20486;-65
2023/10/13 01:33:15;;;;;;;13.75;10.43;;;;;;;16.31;100.00;100975.91;5113738;28;20020;-65
2023/10/13 01:35:47;;;;;;;14.27;10.00;;;;;;;16.33;100.00;100965.06;5110024;28;20015;-66
2023/10/13 01:38:14;;;;;;;18.98;11.52;;;;;;;16.30;100.00;100958.09;5091750;28;20747;-65
2023/10/13 01:40:39;;;;;;;14.02;10.32;;;;;;;16.32;100.00;100956.16;5082054;28;20024;-65
2023/10/13 01:43:10;;;;;;;15.40;10.00;;;;;;;16.33;100.00;100959.69;5095537;28;20080;-66
2023/10/13 01:45:46;;;;;;;14.93;9.90;;;;;;;16.32;100.00;100958.84;5108416;28;20024;-65
2023/10/13 01:48:15;;;;;;;14.65;10.20;;;;;;;16.32;100.00;100948.09;5112328;28;20019;-65
2023/10/13 01:50:41;;;;;;;;;;;;;;;16.41;100.00;100945.59;5107391;28;20513;-65
2023/10/13 01:53:17;;;;;;;17.88;10.98;;;;;;;16.35;100.00;100936.22;5082356;28;19911;-65
2023/10/13 01:55:43;;;;;;;19.67;12.00;;;;;;;16.34;100.00;100930.00;5101992;28;20055;-65
2023/10/13 01:58:22;;;;;;;15.00;11.27;;;;;;;16.32;100.00;100931.13;5102913;28;20510;-65
2023/10/13 02:00:48;;;;;;;20.05;11.20;;;;;;;16.32;100.00;100925.75;5109369;28;20067;-66
2023/10/13 02:03:17;;;;;;;13.93;11.15;;;;;;;16.31;100.00;100930.28;5103072;28;20032;-65
2023/10/13 02:05:49;;;;;;;16.38;11.13;;;;;;;16.30;100.00;100917.84;5108769;28;20058;-65
2023/10/13 02:08:23;;;;;;;18.98;11.48;;;;;;;16.23;100.00;100902.38;5103713;28;20027;-66
2023/10/13 02:10:52;;;;;;;20.45;11.80;;;;;;;16.31;100.00;100913.31;5095053;28;20156;-65
2023/10/13 02:13:19;;;;;;;;;;;;;;;16.39;100.00;100910.00;5105735;28;20051;-65
2023/10/13 02:15:45;;;;;;;21.67;12.77;;;;;;;16.34;100.00;100910.38;5112521;28;19972;-66
2023/10/13 02:18:33;;;;;;;17.30;12.65;;;;;;;16.32;100.00;100918.56;5094028;28;20046;-65
2023/10/13 02:21:12;;;;;;;17.92;13.43;;;;;;;16.35;100.00;100917.44;5108746;28;20023;-65
2023/10/13 02:23:45;;;;;;;22.13;14.18;;;;;;;16.35;100.00;100914.75;5108062;28;20034;-65
2023/10/13 02:28:39;;;;;;;22.33;15.88;;;;;;;16.36;100.00;100900.38;5105399;28;20375;-65
2023/10/13 02:31:06;;;;;;;18.30;15.55;;;;;;;16.38;100.00;100892.16;5086676;28;20023;-66
2023/10/13 02:33:32;;;;;;;24.45;16.38;;;;;;;16.30;100.00;100882.94;5081602;28;20058;-66
2023/10/13 02:36:05;;;;;;;24.27;16.80;;;;;;;16.39;100.00;100893.88;5093019;28;20023;-65
2023/10/13 02:41:05;;;;;;;21.50;17.60;;;;;;;16.38;100.00;100882.28;5101391;28;20391;-66
2023/10/13 02:43:33;;;;;;;25.27;19.92;;;;;;;16.41;100.00;100870.41;5111195;28;20016;-65
2023/10/13 02:46:02;;;;;;;29.60;20.02;;;;;;;16.42;100.00;100862.25;5089735;28;20092;-65
2023/10/13 02:48:46;;;;;;;26.65;19.45;;;;;;;16.41;100.00;100848.94;5110749;28;20019;-65
2023/10/13 02:51:15;;;;;;;27.75;21.45;;;;;;;16.43;100.00;100847.81;5109606;28;20027;-66
2023/10/13 02:53:52;;;;;;;28.02;22.08;;;;;;;16.45;100.00;100850.38;5087542;28;20259;-66
2023/10/13 02:56:20;;;;;;;29.85;21.20;;;;;;;16.44;100.00;100837.94;5104102;28;20100;-66
2023/10/13 02:59:04;;;;;;;29.15;21.83;;;;;;;16.44;100.00;100833.44;5106377;28;20039;-66
2023/10/13 03:01:33;;;;;;;37.05;22.48;;;;;;;16.43;100.00;100829.03;5110373;28;20031;-66
2023/10/13 03:04:03;;;;;;;27.98;21.55;;;;;;;16.46;100.00;100830.59;5089963;28;20035;-65
2023/10/13 03:06:34;;;;;;;;;;;;;;;16.49;100.00;100812.38;5102092;28;20470;-66
2023/10/13 03:09:17;;;;;;;33.92;23.55;;;;;;;16.44;100.00;100800.34;5087102;28;19953;-66
2023/10/13 03:11:50;;;;;;;31.38;24.02;;;;;;;16.45;100.00;100800.22;5103409;28;20524;-66
2023/10/13 03:16:52;;;;;;;32.05;24.80;;;;;;;16.40;100.00;100789.03;5096992;28;20038;-66
2023/10/13 03:19:19;;;;;;;33.03;24.88;;;;;;;16.47;100.00;100789.34;5089037;28;20038;-66
2023/10/13 03:21:46;;;;;;;32.80;24.80;;;;;;;16.45;100.00;100781.44;5103760;28;20077;-66
2023/10/13 03:24:13;;;;;;;38.97;26.27;;;;;;;16.48;100.00;100777.63;5090750;28;20110;-64
2023/10/13 03:26:44;;;;;;;36.22;27.30;;;;;;;16.49;100.00;100782.84;5089415;28;20047;-66
2023/10/13 03:29:13;;;;;;;36.35;28.13;;;;;;;16.48;100.00;100764.22;5105544;28;20012;-66
2023/10/13 03:31:39;;;;;;;41.45;29.10;;;;;;;16.52;100.00;100771.00;5108842;28;20393;-66
2023/10/13 03:34:11;;;;;;;39.17;28.70;;;;;;;16.55;100.00;100754.59;5108412;28;20052;-66
2023/10/13 03:39:27;;;;;;;39.38;29.70;;;;;;;16.57;100.00;100750.78;5095765;28;20390;-65
2023/10/13 03:41:53;;;;;;;39.30;29.67;;;;;;;16.50;100.00;100728.19;5109396;28;20035;-66
2023/10/13 03:44:20;;;;;;;38.15;28.90;;;;;;;16.56;100.00;100733.00;5111149;28;20066;-65
2023/10/13 03:46:48;;;;;;;41.15;29.80;;;;;;;16.62;100.00;100745.03;5101557;28;20613;-65
2023/10/13 03:49:21;;;;;;;44.15;30.05;;;;;;;16.62;100.00;100736.09;5079929;28;20420;-66
2023/10/13 03:51:48;;;;;;;42.38;28.90;;;;;;;16.55;100.00;100720.53;5102483;28;20016;-65
2023/10/13 03:54:16;;;;;;;35.92;28.90;;;;;;;16.64;100.00;100729.59;5111375;28;20110;-66
2023/10/13 03:56:45;;;;;;;38.28;28.92;;;;;;;16.67;100.00;100729.31;5111216;28;20386;-65
2023/10/13 04:01:53;;;;;;;44.60;27.70;;;;;;;16.71;100.00;100713.81;5101601;28;20406;-65
2023/10/13 04:04:43;;;;;;;41.08;29.02;;;;;;;16.71;100.00;100701.22;5106818;28;20027;-65
2023/10/13 04:15:17;;;;;;;40.50;26.88;;;;;;;16.75;100.00;100683.81;5111081;28;20028;-65
2023/10/13 04:17:44;;;;;;;37.22;26.70;;;;;;;16.76;100.00;100690.91;5105666;28;20108;-66
2023/10/13 04:25:35;;;;;;;36.28;25.58;;;;;;;16.80;100.00;100699.56;5110746;28;20034;-65
2023/10/13 04:33:35;;;;;;;32.55;23.45;;;;;;;16.89;100.00;100698.72;5107634;28;20050;-66
2023/10/13 04:39:35;;;;;;;30.55;22.58;;;;;;;16.92;100.00;100694.91;5106716;28;20039;-65
2023/10/13 06:29:38;;;;;;;23.60;11.93;;;;;;;16.95;100.00;100560.28;5113671;28;20394;-65
2023/10/13 06:32:10;;;;;;;24.25;12.25;;;;;;;16.92;100.00;100558.72;5102357;28;20035;-65
2023/10/13 06:34:44;;;;;;;21.95;11.55;;;;;;;16.96;100.00;100554.75;5113714;28;20436;-65
2023/10/13 06:37:22;;;;;;;24.23;12.07;;;;;;;16.98;100.00;100550.06;5111059;28;20035;-65
2023/10/13 06:42:47;;;;;;;19.60;10.95;;;;;;;16.98;100.00;100539.34;5065954;28;20062;-65
2023/10/13 06:45:17;;;;;;;20.50;10.60;;;;;;;17.00;100.00;100542.72;5074949;28;20067;-65
2023/10/13 06:47:43;;;;;;;18.63;11.40;;;;;;;17.04;100.00;100529.84;5111880;28;20051;-65
2023/10/13 06:50:15;;;;;;;19.13;11.00;;;;;;;17.02;100.00;100521.91;5087591;28;20032;-65
2023/10/13 06:52:48;;;;;;;17.52;11.18;;;;;;;17.04;100.00;100521.78;5084242;28;20055;-65
2023/10/13 06:55:27;;;;;;;20.10;11.05;;;;;;;17.05;100.00;100525.31;5094014;28;20036;-65
2023/10/13 06:57:59;;;;;;;18.77;10.55;;;;;;;17.06;100.00;100519.81;5095876;28;20131;-65
2023/10/13 07:00:34;;;;;;;21.48;11.25;;;;;;;17.06;100.00;100524.31;5095124;28;20175;-65
2023/10/13 07:03:06;;;;;;;22.77;11.93;;;;;;;17.10;100.00;100509.59;5094689;28;20031;-65
2023/10/13 07:05:43;;;;;;;22.52;12.73;;;;;;;17.09;100.00;100510.56;5113267;28;20482;-66
2023/10/13 07:08:14;;;;;;;18.45;11.70;;;;;;;17.08;100.00;100507.03;5073586;28;20070;-66
2023/10/13 07:13:36;;;;;;;20.92;12.57;;;;;;;17.11;100.00;100500.53;5084322;28;20036;-66
2023/10/13 07:16:06;;;;;;;24.95;13.23;;;;;;;17.06;100.00;100481.31;5085841;28;20601;-65
2023/10/13 07:18:36;;;;;;;;;;;;;;;17.17;100.00;100492.72;5113988;28;20047;-66
2023/10/13 07:21:09;;;;;;;28.15;11.45;;;;;;;17.16;100.00;100490.19;5089901;28;19912;-66
2023/10/13 07:23:36;;;;;;;25.77;11.85;;;;;;;17.17;100.00;100487.34;5086396;28;20047;-66
2023/10/13 07:26:04;;;;;;;26.55;11.90;;;;;;;17.20;100.00;100483.53;5054327;28;20020;-66
2023/10/13 07:28:36;;;;;;;25.42;11.25;;;;;;;17.21;100.00;100475.31;5090598;28;20024;-65
2023/10/13 07:33:31;;;;;;;26.27;11.50;;;;;;;17.28;100.00;100472.88;5066298;28;20141;-66
2023/10/13 07:36:17;;;;;;;20.27;11.30;;;;;;;17.27;100.00;100478.41;5054665;28;20025;-65
2023/10/13 07:39:09;;;;;;;21.30;10.68;;;;;;;17.35;100.00;100483.88;5054412;28;20025;-65
2023/10/13 07:41:36;;;;;;;27.60;10.68;;;;;;;17.35;100.00;100470.44;5079827;28;20035;-66
2023/10/13 07:44:04;;;;;;;22.17;10.48;;;;;;;17.45;100.00;100477.44;5080335;28;20020;-65
2023/10/13 07:46:32;;;;;;;21.43;10.30;;;;;;;17.51;100.00;100477.84;5074597;28;20440;-66
2023/10/13 07:49:11;;;;;;;22.48;10.43;;;;;;;17.57;100.00;100469.19;5091601;28;20272;-65
2023/10/13 07:51:48;;;;;;;20.48;9.25;;;;;;;17.60;100.00;100474.25;5092312;28;20105;-66
2023/10/13 07:54:23;;;;;;;17.38;9.43;;;;;;;17.55;100.00;100460.41;5088205;28;20058;-66
2023/10/13 07:56:50;;;;;;;22.77;10.48;;;;;;;17.64;100.00;100462.19;5100442;28;20023;-65
2023/10/13 07:59:16;;;;;;;19.80;9.48;;;;;;;17.67;100.00;100459.19;5091254;28;20145;-66
2023/10/13 08:01:42;;;;;;;27.58;9.50;;;;;;;17.67;100.00;100457.34;5073925;28;20072;-66
2023/10/13 08:04:12;;;;;;;20.80;9.50;;;;;;;17.70;100.00;100458.88;5092264;28;20390;-66
2023/10/13 08:06:42;;;;;;;19.95;8.52;;;;;;;17.69;100.00;100452.66;5093357;28;20023;-66
2023/10/13 08:09:29;;;;;;;17.88;9.57;;;;;;;17.71;100.00;100464.13;5107630;28;20077;-66
2023/10/13 08:11:54;;;;;;;21.05;10.05;;;;;;;17.75;100.00;100455.75;5080750;28;20032;-66
2023/10/13 08:14:33;;;;;;;22.10;9.05;;;;;;;17.74;100.00;100451.38;5090780;28;20499;-65
2023/10/13 08:16:59;;;;;;;21.65;9.48;;;;;;;17.82;100.00;100443.41;5088420;28;20023;-68
2023/10/13 08:19:27;;;;;;;17.48;9.25;;;;;;;17.88;100.00;100453.53;5086838;28;20030;-66
2023/10/13 08:21:58;;;;;;;16.40;9.13;;;;;;;17.96;100.00;100448.25;5100083;28;20045;-66
2023/10/13 08:24:28;;;;;;;23.05;9.02;;;;;;;17.99;100.00;100439.84;5089866;28;20024;-66
2023/10/13 08:26:57;;;;;;;17.40;9.23;;;;;;;18.06;100.00;100432.88;5090976;28;20012;-66
2023/10/13 08:35:09;;;;;;;21.88;9.25;;;;;;;18.21;100.00;100440.41;5082277;28;20031;-66
2023/10/13 08:42:52;;;;;;;15.13;8.65;;;;;;;18.36;100.00;100430.75;5086797;28;20028;-66
2023/10/13 08:48:34;;;;;;;23.05;8.63;;;;;;;18.43;100.00;100433.63;5092481;28;20015;-66
2023/10/13 08:53:32;;;;;;;21.90;9.02;;;;;;;18.42;100.00;100416.66;5091036;28;20040;-65
2023/10/13 08:59:04;;;;;;;17.23;8.13;;;;;;;18.49;100.00;100422.22;5091641;28;20046;-65
2023/10/13 09:09:39;;;;;;;21.38;8.45;;;;;;;18.59;100.00;100418.44;5071858;28;20102;-66
2023/10/13 09:12:11;;;;;;;26.02;8.63;;;;;;;18.62;100.00;100409.19;5053502;28;20483;-66
2023/10/13 09:14:39;;;;;;;20.92;7.82;;;;;;;18.58;100.00;100408.66;5072873;28;20028;-66
2023/10/13 09:17:09;;;;;;;26.00;8.77;;;;;;;18.60;100.00;100406.66;5065668;28;20019;-66
2023/10/13 09:19:49;;;;;;;15.95;8.27;;;;;;;18.68;100.00;100413.94;5115603;28;20065;-66
2023/10/13 09:22:27;;;;;;;15.63;9.02;;;;;;;18.65;100.00;100418.78;5097378;28;20023;-66
2023/10/13 09:24:59;;;;;;;18.75;8.90;;;;;;;18.65;100.00;100403.50;5114754;28;20036;-66
2023/10/13 09:27:29;;;;;;;17.13;8.02;;;;;;;18.71;100.00;100419.00;5096861;28;20023;-66
2023/10/13 09:30:21;;;;;;;14.80;8.25;;;;;;;18.63;100.00;100393.88;5115420;28;20031;-65
2023/10/13 09:33:01;;;;;;;19.35;8.45;;;;;;;18.71;100.00;100404.69;5097208;28;20024;-66
2023/10/13 09:35:27;;;;;;;18.80;9.27;;;;;;;18.71;100.00;100399.31;5113010;28;20026;-66
2023/10/13 09:37:56;;;;;;;20.75;8.00;;;;;;;18.78;100.00;100401.22;5060184;28;20074;-66
2023/10/13 09:40:46;;;;;;;;;;;;;;;18.91;100.00;100402.63;5093896;28;20023;-66
2023/10/13 09:43:14;;;;;;;21.27;8.52;;;;;;;18.99;100.00;100399.97;5104643;28;19955;-66
2023/10/13 09:45:56;;;;;;;18.60;9.25;;;;;;;19.06;100.00;100401.00;5114942;28;20490;-66
2023/10/13 09:48:31;;;;;;;20.23;8.23;;;;;;;19.06;100.00;100396.47;5084812;28;20494;-66
2023/10/13 09:51:01;;;;;;;20.45;8.50;;;;;;;19.07;100.00;100394.59;5096263;28;20065;-66
2023/10/13 09:53:29;;;;;;;19.55;8.80;;;;;;;19.06;99.78;100388.38;5056448;28;20444;-66
2023/10/13 09:56:11;;;;;;;16.90;8.35;;;;;;;19.17;99.35;100389.91;5073995;28;20028;-66
2023/10/13 09:58:47;;;;;;;18.58;8.10;;;;;;;19.34;98.71;100384.56;5114579;28;20032;-65
2023/10/13 10:01:21;;;;;;;21.35;8.10;;;;;;;19.45;97.92;100382.41;5115101;28;20028;-66
2023/10/13 10:04:07;;;;;;;16.15;8.13;;;;;;;19.56;97.49;100378.56;5112407;28;20032;-66
2023/10/13 10:06:39;;;;;;;21.08;8.15;;;;;;;19.58;97.71;100367.56;5114153;28;20053;-67
2023/10/13 10:09:13;;;;;;;17.25;8.02;;;;;;;19.71;94.15;100371.50;5108564;28;20024;-66
2023/10/13 10:12:25;;;;;;;24.25;7.85;;;;;;;19.74;96.11;100368.47;5094210;28;20035;-67
2023/10/13 10:15:03;;;;;;;17.77;8.48;;;;;;;19.64;98.85;100364.22;5080636;28;20040;-66
2023/10/13 10:17:33;;;;;;;18.70;7.50;;;;;;;19.68;95.66;100368.31;5109448;28;20432;-67
2023/10/13 10:19:58;;;;;;;15.93;8.30;;;;;;;19.48;95.49;100332.69;5114147;28;20041;-67
2023/10/13 10:22:39;;;;;;;21.42;8.68;;;;;;;19.54;98.55;100360.84;5096113;28;20390;-67
2023/10/13 10:25:25;;;;;;;21.33;8.35;;;;;;;19.58;93.04;100354.09;5094935;28;20051;-66
2023/10/13 10:28:15;;;;;;;14.75;8.02;;;;;;;19.64;93.40;100348.03;5073832;28;20547;-66
2023/10/13 10:30:43;;;;;;;16.52;8.65;;;;;;;19.65;92.74;100347.91;5091163;28;20191;-66
2023/10/13 10:33:15;;;;;;;17.53;8.60;;;;;;;19.64;93.85;100345.31;5114372;28;20393;-67
2023/10/13 10:35:46;;;;;;;20.60;8.45;;;;;;;19.69;92.47;100353.78;5113625;28;20756;-67
2023/10/13 10:38:33;;;;;;;25.25;8.25;;;;;;;19.71;94.21;100330.19;5114183;28;20024;-67
2023/10/13 10:41:01;;;;;;;18.38;8.13;;;;;;;19.75;92.71;100336.94;5111789;28;20027;-66
2023/10/13 10:43:47;;;;;;;19.77;8.37;;;;;;;19.78;92.14;100360.03;5114194;28;20383;-66
2023/10/13 10:46:16;;;;;;;20.75;8.15;;;;;;;19.73;90.14;100357.84;5113623;28;20027;-67
2023/10/13 10:48:47;;;;;;;22.00;8.80;;;;;;;19.72;90.46;100335.41;5100861;28;20099;-66
2023/10/13 10:51:23;;;;;;;21.67;8.57;;;;;;;19.77;90.25;100356.50;5087942;28;20439;-66
2023/10/13 10:53:51;;;;;;;21.90;9.32;;;;;;;19.75;90.96;100353.13;5113960;28;20062;-66
2023/10/13 10:56:37;;;;;;;17.58;8.27;;;;;;;19.82;89.53;100348.72;5113196;28;20023;-66
2023/10/13 10:59:05;;;;;;;19.63;8.60;;;;;;;19.87;89.27;100345.53;5112170;28;20040;-66
2023/10/13 11:01:38;;;;;;;18.50;8.75;;;;;;;19.85;90.34;100336.75;5113609;28;20037;-66
2023/10/13 11:04:14;;;;;;;16.98;8.20;;;;;;;20.00;90.25;100343.16;5095031;28;20028;-66
2023/10/13 11:06:46;;;;;;;23.65;9.10;;;;;;;20.17;88.81;100361.00;5093870;28;20027;-66
2023/10/13 11:09:18;;;;;;;17.05;8.70;;;;;;;20.21;87.92;100342.63;5096860;28;20394;-67
2023/10/13 11:11:52;;;;;;;17.30;8.23;;;;;;;20.28;86.49;100345.47;5075629;28;20035;-66
2023/10/13 11:14:24;;;;;;;25.50;8.73;;;;;;;20.28;87.20;100337.38;5111638;28;20071;-66
2023/10/13 11:16:53;;;;;;;21.70;9.15;;;;;;;20.22;87.36;100333.50;5105610;28;20031;-66
2023/10/13 11:19:25;;;;;;;26.17;8.70;;;;;;;20.27;86.38;100322.19;5107736;28;20028;-66
2023/10/13 11:21:52;;;;;;;21.25;8.48;;;;;;;20.25;84.93;100319.66;5103344;28;20084;-66
2023/10/13 11:24:18;;;;;;;17.52;8.85;;;;;;;20.29;85.65;100312.88;5108310;28;20023;-66
2023/10/13 11:26:50;;;;;;;19.63;7.90;;;;;;;20.36;84.31;100311.19;5112981;28;20442;-66
2023/10/13 11:29:30;;;;;;;22.60;8.43;;;;;;;20.42;83.23;100301.53;5102241;28;20090;-66
2023/10/13 11:31:59;;;;;;;19.88;8.15;;;;;;;20.50;85.97;100288.00;5113020;28;20035;-66
2023/10/13 11:34:39;;;;;;;19.15;8.98;;;;;;;20.58;83.91;100285.28;5111665;28;20027;-66
2023/10/13 11:37:28;;;;;;;21.23;8.65;;;;;;;20.61;83.67;100278.69;5111454;28;20024;-66
2023/10/13 11:39:51;;;;;;;20.42;7.90;;;;;;;20.77;80.74;100275.91;5090766;28;20039;-66
2023/10/13 11:42:17;;;;;;;20.60;8.15;;;;;;;20.82;82.13;100280.78;5112367;28;20050;-66
2023/10/13 11:44:46;;;;;;;23.10;8.05;;;;;;;20.90;80.74;100256.41;5094394;28;20435;-66
2023/10/13 11:50:05;;;;;;;19.77;8.40;;;;;;;21.06;80.00;100255.44;5044883;28;20037;-66
2023/10/13 11:52:30;;;;;;;20.25;8.38;;;;;;;20.99;80.12;100259.91;5110934;28;20114;-66
2023/10/13 11:54:58;;;;;;;18.90;8.73;;;;;;;20.95;80.27;100256.72;5112152;28;20451;-66
2023/10/13 11:57:24;;;;;;;26.63;8.63;;;;;;;21.10;77.57;100259.50;5109324;28;20032;-66
2023/10/13 12:00:24;;;;;;;22.88;8.43;;;;;;;21.11;78.48;100263.88;5111266;28;20563;-66
2023/10/13 12:05:37;;;;;;;16.80;7.97;;;;;;;21.31;78.28;100246.13;5112538;28;20039;-65
2023/10/13 12:08:03;;;;;;;20.77;8.48;;;;;;;21.41;79.06;100245.06;5112288;28;20031;-65
2023/10/13 12:10:49;;;;;;;22.25;8.20;;;;;;;21.84;74.77;100238.06;5093464;28;20471;-66
2023/10/13 12:13:14;;;;;;;15.00;8.02;;;;;;;22.22;72.76;100240.75;5112187;28;20030;-65
2023/10/13 12:15:48;;;;;;;21.92;8.57;;;;;;;22.65;70.28;100246.31;5112385;28;20019;-65
2023/10/13 12:18:15;;;;;;;19.73;8.65;;;;;;;22.64;71.06;100250.84;5112191;28;20119;-65
2023/10/13 12:20:45;;;;;;;21.73;8.90;;;;;;;22.51;72.11;100237.16;5112023;28;20031;-66
2023/10/13 12:23:15;;;;;;;22.42;8.68;;;;;;;22.43;71.59;100246.22;5112285;28;20434;-66
2023/10/13 12:26:06;;;;;;;24.30;9.13;;;;;;;22.42;71.49;100239.13;5111875;28;20031;-65
2023/10/13 12:28:37;;;;;;;22.05;8.20;;;;;;;22.28;71.67;100237.28;5111966;28;20023;-65
2023/10/13 12:31:07;;;;;;;23.58;9.43;;;;;;;22.25;71.63;100237.66;5112020;28;20118;-65
2023/10/13 12:33:42;;;;;;;22.35;8.35;;;;;;;22.47;70.41;100243.13;5093529;28;20027;-65
2023/10/13 12:37:05;;;;;;;30.45;8.98;;;;;;;22.39;70.09;100225.97;5093759;28;20529;-65
2023/10/13 12:52:18;;;;;;;26.30;8.13;;;;;;;21.92;70.19;100221.75;5095910;28;20128;-65
2023/10/13 12:54:58;;;;;;;20.45;7.93;;;;;;;21.79;70.18;100208.00;5110199;28;20372;-65
2023/10/13 12:57:28;;;;;;;18.95;8.15;;;;;;;21.85;69.91;100209.97;5096958;28;20046;-65
2023/10/13 12:59:54;;;;;;;23.55;8.27;;;;;;;21.83;69.46;100217.44;5115404;28;20077;-65
2023/10/13 13:02:29;;;;;;;23.15;7.63;;;;;;;21.89;69.87;100205.03;5115862;28;20073;-65
2023/10/13 13:05:02;;;;;;;25.45;7.47;;;;;;;22.00;68.48;100228.91;5097814;28;20034;-65
2023/10/13 13:07:31;;;;;;;21.85;7.55;;;;;;;21.92;70.75;100210.91;5109193;28;20020;-65
2023/10/13 13:09:59;;;;;;;18.58;7.65;;;;;;;21.88;68.85;100200.63;5080611;28;20039;-65
2023/10/13 13:12:28;;;;;;;17.10;7.57;;;;;;;22.00;68.16;100218.97;5115936;28;20027;-65
2023/10/13 13:14:55;;;;;;;16.60;6.78;;;;;;;22.01;67.04;100225.22;5115361;28;20024;-65
2023/10/13 13:17:23;;;;;;;18.35;7.47;;;;;;;21.98;66.74;100221.00;5102441;28;20052;-65
2023/10/13 13:19:48;;;;;;;18.33;7.40;;;;;;;21.96;66.48;100225.75;5093619;28;20027;-65
2023/10/13 13:22:14;;;;;;;19.58;7.10;;;;;;;21.94;67.62;100221.53;5096958;28;20065;-65
2023/10/13 13:24:43;;;;;;;23.60;6.93;;;;;;;21.95;67.54;100213.25;5115137;28;20032;-65
2023/10/13 13:27:14;;;;;;;24.65;7.10;;;;;;;21.95;68.23;100212.41;5115723;28;20015;-65
2023/10/13 13:29:43;;;;;;;21.70;7.18;;;;;;;21.93;68.58;100225.28;5114747;28;20031;-64
2023/10/13 13:32:24;;;;;;;21.25;6.95;;;;;;;21.94;66.87;100218.84;5096682;28;20069;-65
2023/10/13 13:35:08;;;;;;;19.88;6.70;;;;;;;21.96;66.38;100205.97;5076279;28;20032;-64
2023/10/13 13:37:37;;;;;;;25.05;7.57;;;;;;;21.84;68.87;100207.47;5106627;28;20019;-65
2023/10/13 13:40:21;;;;;;;15.75;6.70;;;;;;;21.84;67.61;100210.16;5063662;28;20028;-66
2023/10/13 13:42:47;;;;;;;19.38;7.03;;;;;;;21.75;67.04;100217.53;5097845;28;20012;-65
2023/10/13 13:45:27;;;;;;;19.45;6.47;;;;;;;21.70;67.78;100209.13;5074459;28;20043;-65
2023/10/13 13:47:53;;;;;;;22.45;7.13;;;;;;;21.61;70.75;100200.25;5084100;28;20470;-66
2023/10/13 13:50:24;;;;;;;19.20;6.75;;;;;;;21.61;69.70;100199.41;5114346;28;20035;-66
2023/10/13 13:52:52;;;;;;;15.73;6.85;;;;;;;21.64;68.19;100197.16;5096502;28;20042;-65
2023/10/13 13:55:18;;;;;;;21.40;7.28;;;;;;;21.70;68.18;100201.84;5110270;28;20156;-65
2023/10/13 13:57:46;;;;;;;17.58;7.47;;;;;;;21.78;67.52;100198.22;5084134;28;20479;-65
2023/10/13 14:00:36;;;;;;;16.17;6.35;;;;;;;21.80;67.07;100187.22;5095660;28;20048;-65
2023/10/13 14:03:05;;;;;;;15.07;6.72;;;;;;;21.84;67.41;100205.59;5078132;28;20024;-65
2023/10/13 14:05:31;;;;;;;19.90;6.65;;;;;;;21.84;66.95;100196.63;5083409;28;20102;-65
2023/10/13 14:07:57;;;;;;;19.88;6.53;;;;;;;21.86;66.56;100197.28;5095388;28;20111;-65
2023/10/13 14:10:32;;;;;;;16.10;6.65;;;;;;;21.79;67.95;100194.47;5113324;28;20027;-65
2023/10/13 14:13:12;;;;;;;20.85;6.70;;;;;;;21.80;66.82;100198.88;5108659;28;20051;-64
2023/10/13 14:15:43;;;;;;;17.20;7.20;;;;;;;21.74;67.13;100188.78;5079483;28;20505;-65
2023/10/13 14:18:15;;;;;;;16.60;6.38;;;;;;;21.73;67.93;100208.75;5084459;28;20032;-65
2023/10/13 14:20:42;;;;;;;17.17;6.90;;;;;;;21.74;68.42;100191.50;5113291;28;20037;-65
2023/10/13 14:23:09;;;;;;;19.88;6.88;;;;;;;21.78;67.93;100206.34;5109719;28;20059;-65
2023/10/13 14:25:37;;;;;;;19.63;7.18;;;;;;;21.81;68.26;100202.41;5077664;28;20034;-65
2023/10/13 14:28:06;;;;;;;21.47;7.13;;;;;;;21.92;66.09;100210.09;5096093;28;20451;-66
2023/10/13 14:30:32;;;;;;;17.17;6.68;;;;;;;21.88;67.07;100192.50;5087548;28;20069;-65
2023/10/13 14:32:58;;;;;;;14.10;6.85;;;;;;;21.87;66.64;100202.50;5077841;28;20028;-65
2023/10/13 14:35:25;;;;;;;15.85;6.68;;;;;;;21.83;67.98;100203.09;5114180;28;20034;-65
2023/10/13 14:37:52;;;;;;;18.85;6.57;;;;;;;21.86;66.77;100202.72;5093213;28;20396;-66
2023/10/13 14:40:21;;;;;;;16.75;6.70;;;;;;;21.87;66.72;100205.22;5093257;28;20020;-65
2023/10/13 14:42:47;;;;;;;14.82;6.00;;;;;;;21.83;67.25;100203.91;5101177;28;20062;-65
2023/10/13 14:45:13;;;;;;;18.90;6.85;;;;;;;21.79;68.43;100197.16;5078987;28;20027;-65
2023/10/13 14:47:40;;;;;;;21.52;7.20;;;;;;;21.80;67.63;100196.16;5063245;28;20028;-65
2023/10/13 14:50:06;;;;;;;13.15;6.43;;;;;;;21.72;68.62;100201.66;5093544;28;20052;-65
2023/10/13 14:52:32;;;;;;;14.13;6.40;;;;;;;21.72;68.40;100207.06;5078631;28;20030;-66
2023/10/13 14:55:00;;;;;;;15.00;6.65;;;;;;;21.67;68.38;100207.63;5092959;28;20033;-65
2023/10/13 14:57:25;;;;;;;14.95;6.75;;;;;;;21.48;69.64;100183.81;5082652;28;20032;-64
2023/10/13 14:59:54;;;;;;;15.18;6.38;;;;;;;21.63;68.67;100194.66;5094983;28;20090;-65
2023/10/13 15:02:22;;;;;;;13.73;6.28;;;;;;;21.58;69.07;100188.94;5067194;28;20031;-65